< < Back
Terminal Aerodrome Forecast


Current Version              Previous Versions:   1  2  3  4  5  6  7  8  9  

Terminal Aerodrome Forecast

795
FTUS44 KMRX 011906 AAA
TAFCHA
TAF AMD
KCHA 011906Z 0119/0218 04010KT P6SM FEW050
     FM020200 VRB03KT P6SM SKC
     FM021500 03003KT P6SM SKC=



Latest METAR

870
SAUS80 KWBC 012200 RRE
MTRCHA
METAR KCHA 012153Z 05007KT 10SM SCT065 33/17 A2995 RMK AO2 SLP133
T03280172


USA.gov is the U.S. government's official web portal to all federal, state and local government web resources and services.